Time;durP1;ratioP1;P1;durP2;ratioP2;P2;SDS_P1;SDS_P2;PMS_P1;PMS_P2;Temp;Humidity;BMP_temperature;BMP_pressure;BME280_temperature;BME280_humidity;BME280_pressure;Samples;Min_cycle;Max_cycle;Signal;HPM_P1;HPM_P2
2021/09/05 00:00:38;;;;;;;8.47;3.73;;;;;;;11.85;100.00;93989.38;5075320;28;20676;-77
2021/09/05 00:03:04;;;;;;;8.87;3.73;;;;;;;11.94;100.00;93986.59;5075493;28;20205;-76
2021/09/05 00:05:31;;;;;;;10.50;4.27;;;;;;;11.98;100.00;93978.13;5075533;28;20206;-77
2021/09/05 00:07:57;;;;;;;6.97;3.80;;;;;;;12.25;100.00;93983.31;5075307;28;20276;-77
2021/09/05 00:10:24;;;;;;;7.87;4.20;;;;;;;12.28;100.00;93982.91;5075421;28;20588;-79
2021/09/05 00:12:50;;;;;;;7.93;4.00;;;;;;;12.23;100.00;93982.72;5075523;28;20203;-76
2021/09/05 00:15:17;;;;;;;7.43;3.73;;;;;;;12.21;100.00;93982.13;5075557;28;20199;-75
2021/09/05 00:17:44;;;;;;;7.57;3.70;;;;;;;12.10;100.00;93986.16;5075416;28;20206;-77
2021/09/05 00:20:12;;;;;;;8.93;3.83;;;;;;;11.99;100.00;93977.13;5075378;28;20198;-76
2021/09/05 00:22:39;;;;;;;7.27;3.73;;;;;;;11.89;100.00;93979.34;5074971;28;20702;-77
2021/09/05 00:25:06;;;;;;;6.73;3.97;;;;;;;11.84;100.00;93987.00;5075165;28;20566;-77
2021/09/05 00:27:33;;;;;;;6.77;4.10;;;;;;;11.82;100.00;93981.13;5074958;28;20227;-78
2021/09/05 00:29:59;;;;;;;11.07;4.47;;;;;;;11.98;100.00;93982.56;5075027;28;20214;-76
2021/09/05 00:32:25;;;;;;;9.53;4.13;;;;;;;11.99;100.00;93984.16;5074545;28;20206;-76
2021/09/05 00:34:53;;;;;;;7.80;4.37;;;;;;;11.89;100.00;93978.53;5074805;28;20654;-76
2021/09/05 00:37:20;;;;;;;6.27;3.87;;;;;;;11.74;100.00;93981.34;5074981;28;20195;-77
2021/09/05 00:39:46;;;;;;;11.50;4.20;;;;;;;11.76;100.00;93976.75;5074863;28;20202;-76
2021/09/05 00:42:13;;;;;;;6.40;3.70;;;;;;;11.70;100.00;93978.34;5075141;28;20225;-76
2021/09/05 00:44:39;;;;;;;9.87;4.07;;;;;;;11.72;100.00;93984.16;5074693;28;20206;-76
2021/09/05 00:47:06;;;;;;;6.53;3.47;;;;;;;11.61;100.00;93976.94;5074908;28;20229;-76
2021/09/05 00:49:32;;;;;;;10.80;4.70;;;;;;;11.62;100.00;93981.97;5074716;28;20206;-76
2021/09/05 00:52:00;;;;;;;7.37;3.93;;;;;;;11.58;100.00;93972.13;5074513;28;20252;-76
2021/09/05 00:54:26;;;;;;;7.23;4.40;;;;;;;11.58;100.00;93978.13;5074728;28;20252;-76
2021/09/05 00:56:53;;;;;;;6.13;4.10;;;;;;;11.60;100.00;93975.31;5074565;28;20199;-77
2021/09/05 00:59:22;;;;;;;5.90;3.90;;;;;;;11.70;100.00;93985.38;5074487;28;20665;-77
2021/09/05 01:01:49;;;;;;;9.10;4.37;;;;;;;11.65;100.00;93983.38;5074197;28;20297;-76
2021/09/05 01:04:15;;;;;;;7.90;4.00;;;;;;;11.74;100.00;93987.41;5074701;28;20199;-76
2021/09/05 01:06:42;;;;;;;8.07;3.90;;;;;;;11.60;100.00;93989.19;5074398;28;20248;-76
2021/09/05 01:09:10;;;;;;;8.93;4.60;;;;;;;11.47;100.00;93997.03;5074270;28;20199;-78
2021/09/05 01:11:38;;;;;;;7.50;4.00;;;;;;;11.33;100.00;93988.38;5074460;28;20256;-77
2021/09/05 01:14:05;;;;;;;8.13;3.90;;;;;;;11.43;100.00;93990.63;5074319;28;20202;-77
2021/09/05 01:16:33;;;;;;;11.10;4.13;;;;;;;11.60;100.00;93993.63;5073955;28;20734;-76
2021/09/05 01:19:04;;;;;;;12.00;5.10;;;;;;;11.55;100.00;93988.19;5074099;28;20286;-76
2021/09/05 01:21:30;;;;;;;8.53;4.33;;;;;;;11.54;100.00;93986.59;5073979;28;20267;-76
2021/09/05 01:23:57;;;;;;;9.57;4.20;;;;;;;11.61;100.00;93990.03;5074179;28;20199;-77
2021/09/05 01:26:26;;;;;;;10.47;4.53;;;;;;;11.71;100.00;93981.75;5074121;28;20195;-77
2021/09/05 01:28:54;;;;;;;12.77;4.10;;;;;;;11.68;100.00;93988.19;5074168;28;20234;-77
2021/09/05 01:31:21;;;;;;;7.93;4.83;;;;;;;11.66;100.00;93988.41;5073945;28;20653;-77
2021/09/05 01:33:47;;;;;;;10.63;4.67;;;;;;;11.67;100.00;93994.44;5073851;28;20207;-77
2021/09/05 01:36:14;;;;;;;9.33;4.57;;;;;;;11.67;100.00;93997.03;5073696;28;20580;-77
2021/09/05 01:38:40;;;;;;;7.00;4.23;;;;;;;11.60;100.00;93994.44;5073656;28;20206;-77
2021/09/05 01:41:07;;;;;;;9.93;4.07;;;;;;;11.67;100.00;94002.28;5073817;28;20199;-77
2021/09/05 01:43:33;;;;;;;7.00;4.50;;;;;;;11.68;100.00;94009.13;5063950;28;20199;-77
2021/09/05 01:46:01;;;;;;;9.20;4.67;;;;;;;11.66;100.00;94003.28;5052924;28;20231;-77
2021/09/05 01:48:27;;;;;;;6.97;3.77;;;;;;;11.63;100.00;94003.69;5053337;28;20242;-77
2021/09/05 01:50:54;;;;;;;7.17;3.97;;;;;;;11.62;100.00;94004.69;5067690;28;20299;-78
2021/09/05 01:53:20;;;;;;;7.47;4.83;;;;;;;11.53;100.00;94011.13;5073453;28;20207;-77
2021/09/05 01:55:47;;;;;;;9.57;4.23;;;;;;;11.52;100.00;94009.50;5073533;28;20210;-76
2021/09/05 01:58:13;;;;;;;9.87;4.63;;;;;;;11.45;100.00;94005.06;5073577;28;20203;-77
2021/09/05 02:00:39;;;;;;;9.73;4.60;;;;;;;11.51;100.00;94015.75;5072725;28;20207;-76
2021/09/05 02:03:07;;;;;;;7.90;4.57;;;;;;;11.60;100.00;94011.94;5073254;28;20198;-76
2021/09/05 02:05:34;;;;;;;10.17;4.23;;;;;;;11.50;100.00;94011.53;5073485;28;20207;-76
2021/09/05 02:08:00;;;;;;;6.10;4.20;;;;;;;11.35;100.00;94019.56;5073504;28;20230;-77
2021/09/05 02:10:27;;;;;;;7.43;4.40;;;;;;;11.39;100.00;94026.81;5073077;28;20199;-76
2021/09/05 02:12:53;;;;;;;8.80;4.80;;;;;;;11.36;100.00;94027.19;5073172;28;20202;-77
2021/09/05 02:15:20;;;;;;;9.40;4.87;;;;;;;11.32;100.00;94022.56;5073080;28;20692;-76
2021/09/05 02:17:47;;;;;;;7.63;4.20;;;;;;;11.23;100.00;94020.13;5072842;28;20268;-76
2021/09/05 02:20:15;;;;;;;7.17;4.80;;;;;;;11.18;100.00;94024.34;5073271;28;20207;-75
2021/09/05 02:22:41;;;;;;;9.00;5.07;;;;;;;11.29;100.00;94021.13;5073066;28;20604;-77
2021/09/05 02:25:09;;;;;;;8.63;4.83;;;;;;;11.28;100.00;94014.31;5073099;28;20221;-78
2021/09/05 02:27:35;;;;;;;7.07;4.73;;;;;;;11.29;100.00;94015.91;5072124;28;20225;-77
2021/09/05 02:30:02;;;;;;;6.57;4.60;;;;;;;11.20;100.00;94019.72;5073141;28;20620;-76
2021/09/05 02:32:28;;;;;;;6.57;4.53;;;;;;;11.29;100.00;94013.28;5072882;28;20205;-77
2021/09/05 02:34:55;;;;;;;8.17;4.67;;;;;;;11.50;100.00;94017.56;5073007;28;20210;-77
2021/09/05 02:37:22;;;;;;;8.40;4.60;;;;;;;11.56;100.00;94013.34;5073165;28;20603;-77
2021/09/05 02:39:49;;;;;;;11.50;5.00;;;;;;;11.74;100.00;94017.97;5072962;28;20244;-77
2021/09/05 02:42:15;;;;;;;11.70;5.73;;;;;;;11.77;100.00;94020.97;5072881;28;20649;-76
2021/09/05 02:44:42;;;;;;;10.07;4.87;;;;;;;11.81;100.00;94016.19;5072591;28;20218;-76
2021/09/05 02:47:09;;;;;;;9.97;5.37;;;;;;;11.68;100.00;94016.97;5072847;28;20221;-75
2021/09/05 02:49:35;;;;;;;9.43;4.77;;;;;;;11.65;100.00;94015.53;5072911;28;20225;-75
2021/09/05 02:52:01;;;;;;;12.90;5.00;;;;;;;11.69;100.00;94010.75;5072900;28;20226;-76
2021/09/05 02:54:29;;;;;;;9.30;5.60;;;;;;;11.78;100.00;94021.81;5071720;28;20908;-77
2021/09/05 02:56:56;;;;;;;9.83;5.70;;;;;;;11.78;100.00;94017.38;5073230;28;20256;-77
2021/09/05 02:59:22;;;;;;;8.67;5.27;;;;;;;11.72;100.00;94018.16;5076854;28;20268;-76
2021/09/05 03:01:49;;;;;;;8.03;4.93;;;;;;;11.70;100.00;94016.78;5076874;28;20603;-77
2021/09/05 03:04:15;;;;;;;10.10;5.00;;;;;;;11.75;100.00;94009.13;5076798;28;20248;-77
2021/09/05 03:06:41;;;;;;;8.70;4.60;;;;;;;11.67;100.00;94015.34;5076841;28;20248;-77
2021/09/05 03:09:08;;;;;;;9.27;5.03;;;;;;;11.60;100.00;94015.34;5076177;28;20714;-76
2021/09/05 03:11:35;;;;;;;10.60;5.23;;;;;;;11.69;100.00;94008.13;5076656;28;20202;-77
2021/09/05 03:14:02;;;;;;;7.03;4.70;;;;;;;11.75;100.00;94014.34;5076388;28;20206;-77
2021/09/05 03:16:28;;;;;;;8.17;4.90;;;;;;;11.64;100.00;94013.97;5076627;28;20195;-77
2021/09/05 03:18:55;;;;;;;12.53;4.97;;;;;;;11.61;100.00;94003.09;5076528;28;20316;-77
2021/09/05 03:21:21;;;;;;;8.50;4.50;;;;;;;11.66;100.00;94013.75;5076426;28;20206;-77
2021/09/05 03:23:47;;;;;;;9.30;5.40;;;;;;;11.52;100.00;94010.31;5076433;28;20203;-76
2021/09/05 03:26:14;;;;;;;9.10;5.07;;;;;;;11.50;100.00;94014.16;5076329;28;20595;-75
2021/09/05 03:28:42;;;;;;;8.93;5.10;;;;;;;11.52;100.00;94006.91;5076091;28;20218;-76
2021/09/05 03:31:08;;;;;;;9.40;5.17;;;;;;;11.52;100.00;94007.69;5076313;28;20198;-76
2021/09/05 03:33:35;;;;;;;9.33;5.30;;;;;;;11.46;100.00;94011.13;5076336;28;20205;-77
2021/09/05 03:36:01;;;;;;;11.17;5.07;;;;;;;11.42;100.00;94010.72;5075771;28;20649;-77
2021/09/05 03:38:27;;;;;;;8.53;5.07;;;;;;;11.31;100.00;94021.75;5076341;28;20210;-77
2021/09/05 03:40:54;;;;;;;11.10;5.13;;;;;;;11.37;100.00;94002.66;5075951;28;20206;-77
2021/09/05 03:43:20;;;;;;;12.10;5.47;;;;;;;11.47;100.00;94007.50;5075957;28;20280;-77
2021/09/05 03:45:48;;;;;;;9.57;5.60;;;;;;;11.51;100.00;94005.28;5075593;28;20381;-78
2021/09/05 03:48:14;;;;;;;12.03;5.20;;;;;;;11.41;100.00;94003.09;5076025;28;20249;-77
2021/09/05 03:50:41;;;;;;;8.80;5.23;;;;;;;11.30;100.00;94012.31;5075653;28;20596;-77
2021/09/05 03:53:07;;;;;;;8.67;5.10;;;;;;;11.26;100.00;94005.88;5075775;28;20203;-77
2021/09/05 03:55:34;;;;;;;10.33;5.33;;;;;;;11.29;100.00;94010.69;5075659;28;20199;-77
2021/09/05 03:58:02;;;;;;;9.10;5.20;;;;;;;11.25;100.00;94009.47;5075866;28;20202;-76
2021/09/05 04:00:28;;;;;;;9.93;5.00;;;;;;;11.29;100.00;94001.06;5075531;28;20221;-76
2021/09/05 04:02:56;;;;;;;8.17;5.20;;;;;;;11.26;100.00;94005.88;5075297;28;20669;-76
2021/09/05 04:05:23;;;;;;;9.13;5.17;;;;;;;11.29;100.00;94006.28;5075597;28;20199;-75
2021/09/05 04:08:01;;;;;;;13.80;5.90;;;;;;;11.35;100.00;94004.66;5074354;28;20199;-76
2021/09/05 04:10:28;;;;;;;8.47;5.33;;;;;;;11.48;100.00;94009.91;5075025;28;20195;-76
2021/09/05 04:12:55;;;;;;;8.77;4.97;;;;;;;11.57;100.00;94017.56;5075264;28;20215;-76
2021/09/05 04:15:21;;;;;;;9.83;5.50;;;;;;;11.57;100.00;94009.72;5075457;28;20203;-77
2021/09/05 04:17:47;;;;;;;9.40;5.13;;;;;;;11.59;100.00;94008.53;5075324;28;20206;-77
2021/09/05 04:20:16;;;;;;;12.67;5.30;;;;;;;11.50;100.00;94014.16;5074870;28;20815;-77
2021/09/05 04:22:42;;;;;;;9.50;5.13;;;;;;;11.41;100.00;94011.72;5074918;28;20199;-76
2021/09/05 04:25:10;;;;;;;11.15;5.88;;;;;;;11.45;100.00;94022.59;5073963;28;20434;-76
2021/09/05 04:27:36;;;;;;;10.90;5.37;;;;;;;11.41;100.00;94024.00;5075041;28;20531;-77
2021/09/05 04:30:03;;;;;;;11.77;5.47;;;;;;;11.37;100.00;94028.78;5075112;28;20226;-77
2021/09/05 04:32:30;;;;;;;11.03;5.03;;;;;;;11.29;100.00;94031.59;5075196;28;20194;-76
2021/09/05 04:34:56;;;;;;;14.10;5.23;;;;;;;11.20;100.00;94030.97;5075026;28;20202;-77
2021/09/05 04:37:24;;;;;;;11.37;5.43;;;;;;;11.15;100.00;94033.38;5074921;28;20340;-77
2021/09/05 04:39:51;;;;;;;8.13;4.90;;;;;;;11.06;100.00;94034.56;5075132;28;20203;-76
2021/09/05 04:42:17;;;;;;;9.17;5.17;;;;;;;11.01;100.00;94029.94;5074959;28;20209;-76
2021/09/05 04:44:44;;;;;;;10.23;5.33;;;;;;;11.04;100.00;94034.78;5074728;28;20207;-77
2021/09/05 04:47:10;;;;;;;9.60;5.73;;;;;;;11.00;100.00;94038.75;5074999;28;20206;-76
2021/09/05 04:49:37;;;;;;;9.60;5.83;;;;;;;10.99;100.00;94042.41;5074863;28;20230;-76
2021/09/05 04:52:06;;;;;;;8.80;5.00;;;;;;;11.03;100.00;94040.19;5074615;28;20228;-76
2021/09/05 04:54:34;;;;;;;11.20;5.50;;;;;;;11.09;100.00;94042.81;5074403;28;20198;-76
2021/09/05 04:57:00;;;;;;;10.57;4.97;;;;;;;11.11;100.00;94040.81;5074650;28;20199;-77
2021/09/05 04:59:27;;;;;;;9.43;5.17;;;;;;;11.16;100.00;94052.47;5074676;28;20206;-75
2021/09/05 05:01:53;;;;;;;9.63;5.33;;;;;;;11.21;100.00;94052.72;5074244;28;20199;-77
2021/09/05 05:04:20;;;;;;;10.60;5.30;;;;;;;11.31;100.00;94058.38;5074394;28;20206;-76
2021/09/05 05:06:47;;;;;;;8.73;5.10;;;;;;;11.34;100.00;94057.97;5074634;28;20209;-77
2021/09/05 05:09:15;;;;;;;10.32;5.80;;;;;;;11.34;100.00;94060.59;5073988;28;21038;-75
2021/09/05 05:11:44;;;;;;;10.90;5.00;;;;;;;11.33;100.00;94063.41;5074414;28;20198;-76
2021/09/05 05:14:11;;;;;;;10.67;4.73;;;;;;;11.35;100.00;94064.00;5074213;28;20217;-76
2021/09/05 05:16:38;;;;;;;12.43;5.53;;;;;;;11.35;100.00;94064.78;5074158;28;20725;-76
2021/09/05 05:19:05;;;;;;;11.63;5.00;;;;;;;11.48;100.00;94067.44;5073404;28;20281;-79
2021/09/05 05:21:32;;;;;;;13.00;4.97;;;;;;;11.53;100.00;94064.22;5073456;28;20203;-76
2021/09/05 05:23:59;;;;;;;15.03;5.07;;;;;;;11.58;100.00;94071.47;5074239;28;20206;-76
2021/09/05 05:26:27;;;;;;;8.03;4.87;;;;;;;11.66;100.00;94079.13;5074238;28;20198;-76
2021/09/05 05:28:55;;;;;;;7.73;4.60;;;;;;;11.91;100.00;94075.94;5073988;28;20271;-75
2021/09/05 05:31:22;;;;;;;6.70;4.40;;;;;;;11.89;100.00;94078.75;5073892;28;20673;-76
2021/09/05 05:33:48;;;;;;;7.87;4.57;;;;;;;11.85;100.00;94077.53;5073704;28;20214;-76
2021/09/05 05:36:14;;;;;;;6.47;4.43;;;;;;;11.89;100.00;94085.78;5073925;28;20202;-76
2021/09/05 05:38:42;;;;;;;7.53;4.73;;;;;;;11.94;100.00;94086.00;5074038;28;20267;-76
2021/09/05 05:41:08;;;;;;;8.93;5.13;;;;;;;12.03;100.00;94088.22;5073839;28;20202;-77
2021/09/05 05:43:36;;;;;;;7.50;4.10;;;;;;;12.08;100.00;94092.06;5073756;28;20203;-76
2021/09/05 05:46:03;;;;;;;7.23;4.73;;;;;;;12.06;100.00;94088.84;5073486;28;20613;-77
2021/09/05 05:48:30;;;;;;;8.37;4.93;;;;;;;12.09;100.00;94094.50;5073627;28;20198;-76
2021/09/05 05:50:57;;;;;;;8.57;4.63;;;;;;;12.27;100.00;94095.69;5073689;28;20210;-77
2021/09/05 05:53:24;;;;;;;7.23;4.40;;;;;;;12.33;100.00;94092.25;5073168;28;20209;-76
2021/09/05 05:55:50;;;;;;;6.77;4.27;;;;;;;12.39;100.00;94089.63;5073509;28;20203;-77
2021/09/05 05:58:17;;;;;;;9.10;4.40;;;;;;;12.43;100.00;94097.88;5073506;28;20580;-77
2021/09/05 06:00:43;;;;;;;8.50;4.30;;;;;;;12.48;100.00;94092.03;5073234;28;20202;-76
2021/09/05 06:03:11;;;;;;;8.00;4.50;;;;;;;12.54;100.00;94086.78;5073271;28;20632;-77
2021/09/05 06:05:37;;;;;;;8.73;4.53;;;;;;;12.56;100.00;94095.25;5073497;28;20203;-75
2021/09/05 06:08:05;;;;;;;9.23;4.10;;;;;;;12.60;100.00;94090.38;5073380;28;20662;-78
2021/09/05 06:10:32;;;;;;;6.40;4.37;;;;;;;12.69;100.00;94099.66;5073221;28;20612;-77
2021/09/05 06:12:59;;;;;;;7.90;4.20;;;;;;;12.73;100.00;94094.81;5073173;28;20241;-77
2021/09/05 06:15:25;;;;;;;5.87;3.67;;;;;;;12.78;100.00;94100.22;5072717;28;20233;-76
2021/09/05 06:17:52;;;;;;;8.05;4.30;;;;;;;12.91;100.00;94104.63;5073177;28;20205;-77
2021/09/05 06:20:20;;;;;;;8.30;4.40;;;;;;;12.99;100.00;94100.97;5073284;28;20260;-78
2021/09/05 06:22:46;;;;;;;6.68;3.95;;;;;;;13.08;100.00;94104.97;5073422;28;20256;-77
2021/09/05 06:25:13;;;;;;;11.02;4.45;;;;;;;13.18;100.00;94101.91;5073222;28;20203;-78
2021/09/05 06:27:39;;;;;;;8.05;4.03;;;;;;;13.28;100.00;94103.06;5073083;28;20217;-78
2021/09/05 06:30:06;;;;;;;7.03;3.92;;;;;;;13.39;100.00;94098.19;5073071;28;20904;-77
2021/09/05 06:32:33;;;;;;;7.00;4.20;;;;;;;13.49;100.00;94098.56;5072578;28;20210;-77
2021/09/05 06:34:59;;;;;;;7.10;3.90;;;;;;;13.61;100.00;94096.88;5073147;28;20210;-77
2021/09/05 06:37:27;;;;;;;6.15;3.72;;;;;;;13.75;100.00;94091.56;5073107;28;20207;-77
2021/09/05 06:39:54;;;;;;;6.22;4.03;;;;;;;13.91;100.00;94106.00;5073017;28;20264;-76
2021/09/05 06:42:20;;;;;;;7.10;4.05;;;;;;;14.03;100.00;94107.69;5072532;28;20542;-77
2021/09/05 06:44:46;;;;;;;6.15;3.90;;;;;;;14.18;100.00;94106.59;5072543;28;20206;-76
2021/09/05 06:47:13;;;;;;;8.27;4.55;;;;;;;14.28;100.00;94108.75;5072960;28;20676;-76
2021/09/05 06:49:39;;;;;;;7.32;4.38;;;;;;;14.34;100.00;94110.47;5072813;28;20284;-76
2021/09/05 06:52:06;;;;;;;6.78;4.18;;;;;;;14.49;100.00;94104.91;5072822;28;20202;-76
2021/09/05 06:54:34;;;;;;;7.05;4.30;;;;;;;14.59;100.00;94102.63;5072663;28;20203;-76
2021/09/05 06:57:01;;;;;;;9.07;4.28;;;;;;;14.73;100.00;94108.56;5072489;28;20229;-77
2021/09/05 06:59:27;;;;;;;6.43;3.50;;;;;;;14.95;100.00;94114.19;5072927;28;20217;-76
2021/09/05 07:01:53;;;;;;;8.55;4.00;;;;;;;15.17;100.00;94112.72;5072852;28;20558;-76
2021/09/05 07:04:20;;;;;;;5.95;3.80;;;;;;;15.33;100.00;94113.16;5072578;28;20661;-76
2021/09/05 07:06:47;;;;;;;6.28;4.13;;;;;;;15.60;100.00;94113.59;5072655;28;20577;-77
2021/09/05 07:09:13;;;;;;;4.95;3.53;;;;;;;15.85;100.00;94110.88;5072549;28;20288;-77
2021/09/05 07:11:41;;;;;;;8.13;4.13;;;;;;;16.11;100.00;94111.50;5072769;28;20210;-77
2021/09/05 07:14:07;;;;;;;7.22;3.65;;;;;;;16.34;100.00;94107.31;5072567;28;20209;-76
2021/09/05 07:16:34;;;;;;;6.22;3.75;;;;;;;16.52;100.00;94109.03;5072788;28;20203;-76
2021/09/05 07:19:00;;;;;;;6.25;3.97;;;;;;;16.80;100.00;94116.25;5072543;28;20202;-77
2021/09/05 07:21:27;;;;;;;5.85;3.70;;;;;;;17.05;100.00;94115.22;5072509;28;20199;-76
2021/09/05 07:23:53;;;;;;;7.88;3.40;;;;;;;17.34;100.00;94119.53;5072346;28;20202;-78
2021/09/05 07:26:20;;;;;;;6.40;3.88;;;;;;;17.59;99.79;94122.91;5072003;28;20248;-79
2021/09/05 07:28:47;;;;;;;6.85;3.50;;;;;;;17.76;99.56;94116.59;5072527;28;20202;-78
2021/09/05 07:31:14;;;;;;;5.80;3.67;;;;;;;17.94;100.00;94120.13;5072546;28;20211;-77
2021/09/05 07:33:40;;;;;;;6.80;3.38;;;;;;;18.10;95.12;94119.38;5072454;28;20202;-77
2021/09/05 07:36:07;;;;;;;5.22;3.40;;;;;;;18.38;98.91;94125.59;5072466;28;20199;-77
2021/09/05 07:38:33;;;;;;;8.38;3.65;;;;;;;18.39;90.36;94124.56;5072189;28;20661;-78
2021/09/05 07:41:00;;;;;;;8.65;4.20;;;;;;;18.43;87.80;94127.53;5072456;28;20213;-77
2021/09/05 07:43:26;;;;;;;7.03;3.70;;;;;;;18.59;90.59;94129.38;5073679;28;20203;-77
2021/09/05 07:45:54;;;;;;;5.75;3.55;;;;;;;18.71;85.53;94126.66;5075960;28;20309;-78
2021/09/05 07:48:20;;;;;;;6.82;3.70;;;;;;;18.73;80.91;94127.19;5075847;28;20215;-79
2021/09/05 07:50:47;;;;;;;5.32;3.60;;;;;;;18.80;89.12;94132.31;5075833;28;20227;-77
2021/09/05 07:53:13;;;;;;;8.15;3.60;;;;;;;18.85;89.18;94135.06;5075475;28;20207;-77
2021/09/05 07:55:40;;;;;;;4.57;2.88;;;;;;;18.96;90.77;94133.38;5075974;28;20210;-77
2021/09/05 07:58:06;;;;;;;6.10;4.03;;;;;;;19.14;87.25;94138.38;5075924;28;20199;-77
2021/09/05 08:00:33;;;;;;;7.35;4.20;;;;;;;19.26;85.87;94135.63;5075709;28;20592;-77
2021/09/05 08:03:03;;;;;;;5.70;3.60;;;;;;;19.30;86.04;94133.28;5075388;28;20199;-77
2021/09/05 08:05:30;;;;;;;5.25;3.72;;;;;;;19.35;80.56;94143.94;5075711;28;20612;-77
2021/09/05 08:07:56;;;;;;;5.40;3.30;;;;;;;19.45;84.53;94138.78;5075893;28;20202;-77
2021/09/05 08:10:23;;;;;;;10.38;3.63;;;;;;;19.42;79.06;94139.28;5075004;28;20584;-77
2021/09/05 08:12:49;;;;;;;8.75;4.13;;;;;;;19.49;82.12;94141.75;5075182;28;20213;-77
2021/09/05 08:15:16;;;;;;;8.82;3.65;;;;;;;19.55;79.17;94138.09;5075411;28;20775;-77
2021/09/05 08:17:42;;;;;;;7.50;3.90;;;;;;;19.66;85.16;94145.09;5075415;28;20210;-77
2021/09/05 08:20:12;;;;;;;7.97;4.30;;;;;;;19.61;78.56;94137.09;5075605;28;20210;-76
2021/09/05 08:22:39;;;;;;;8.93;4.10;;;;;;;19.60;78.28;94135.50;5075480;28;20206;-76
2021/09/05 08:25:06;;;;;;;8.88;3.72;;;;;;;19.74;80.21;94141.22;5075245;28;20657;-76
2021/09/05 08:27:33;;;;;;;5.68;3.80;;;;;;;19.77;79.40;94146.06;5075327;28;20252;-76
2021/09/05 08:29:59;;;;;;;6.43;3.58;;;;;;;19.73;78.85;94144.91;5075287;28;20237;-77
2021/09/05 08:32:25;;;;;;;5.88;3.58;;;;;;;19.70;76.90;94142.75;5075053;28;20202;-78
2021/09/05 08:34:52;;;;;;;5.75;3.85;;;;;;;19.74;80.10;94147.31;5074989;28;20210;-77
2021/09/05 08:37:20;;;;;;;6.27;4.00;;;;;;;19.81;76.04;94152.47;5075309;28;20446;-76
2021/09/05 08:39:46;;;;;;;5.63;3.67;;;;;;;19.96;76.01;94165.06;5075102;28;20206;-76
2021/09/05 08:42:13;;;;;;;6.55;3.65;;;;;;;20.04;81.88;94155.88;5075141;28;20209;-77
2021/09/05 08:44:39;;;;;;;5.57;3.50;;;;;;;20.04;75.79;94167.28;5074866;28;20194;-77
2021/09/05 08:47:08;;;;;;;7.18;3.75;;;;;;;20.11;76.94;94167.09;5074849;28;20210;-77
2021/09/05 08:49:37;;;;;;;5.75;3.60;;;;;;;20.19;75.33;94163.97;5074550;28;20322;-77
2021/09/05 08:52:05;;;;;;;5.65;3.53;;;;;;;20.19;74.81;94169.28;5074960;28;20203;-76
2021/09/05 08:54:33;;;;;;;5.93;3.80;;;;;;;20.25;73.87;94162.16;5074839;28;20214;-76
2021/09/05 08:57:01;;;;;;;7.75;4.05;;;;;;;20.33;72.79;94170.50;5074463;28;20202;-76
2021/09/05 08:59:31;;;;;;;5.72;3.50;;;;;;;20.45;73.35;94167.69;5074670;28;20202;-77
2021/09/05 09:02:00;;;;;;;6.28;3.97;;;;;;;20.44;73.06;94171.38;5074428;28;20229;-76
2021/09/05 09:04:27;;;;;;;5.57;3.70;;;;;;;20.53;71.67;94174.34;5074724;28;20227;-76
2021/09/05 09:06:53;;;;;;;5.97;3.65;;;;;;;20.57;73.37;94175.47;5074532;28;20661;-77
2021/09/05 09:09:20;;;;;;;5.78;3.53;;;;;;;20.51;71.28;94181.78;5074276;28;20653;-77
2021/09/05 09:11:50;;;;;;;5.70;3.70;;;;;;;20.51;72.00;94171.16;5074326;28;20203;-78
2021/09/05 09:14:17;;;;;;;7.57;3.67;;;;;;;20.29;71.43;94173.88;5074372;28;20217;-79
2021/09/05 09:16:45;;;;;;;6.70;3.50;;;;;;;20.26;71.24;94169.09;5074422;28;20222;-78
2021/09/05 09:19:23;;;;;;;6.18;3.83;;;;;;;20.37;72.51;94180.56;5074292;28;20210;-78
2021/09/05 09:21:49;;;;;;;6.22;3.60;;;;;;;20.21;70.50;94175.13;5074251;28;20214;-78
2021/09/05 09:24:18;;;;;;;6.32;3.60;;;;;;;20.28;72.15;94173.09;5074181;28;20202;-77
2021/09/05 09:26:57;;;;;;;5.28;3.50;;;;;;;20.32;69.81;94170.75;5074033;28;20231;-77
2021/09/05 09:29:24;;;;;;;10.63;3.08;;;;;;;20.29;67.66;94179.97;5074199;28;20213;-77
2021/09/05 09:31:57;;;;;;;7.88;4.00;;;;;;;20.40;72.69;94175.59;5073956;28;20206;-77
2021/09/05 09:34:25;;;;;;;7.75;3.55;;;;;;;20.51;71.15;94171.16;5074173;28;20230;-77
2021/09/05 09:36:57;;;;;;;5.43;3.50;;;;;;;20.61;72.41;94176.53;5073492;28;20570;-78
2021/09/05 09:39:23;;;;;;;6.35;4.13;;;;;;;20.35;71.34;94172.91;5073806;28;20557;-78
2021/09/05 09:41:50;;;;;;;5.68;3.70;;;;;;;20.45;72.06;94172.16;5073601;28;20213;-80
2021/09/05 09:44:17;;;;;;;6.53;3.65;;;;;;;20.37;70.55;94164.66;5073795;28;20207;-78
2021/09/05 09:46:44;;;;;;;9.25;4.00;;;;;;;20.45;72.42;94161.56;5073790;28;20257;-79
2021/09/05 09:49:13;;;;;;;5.15;3.63;;;;;;;20.56;70.05;94168.56;5073676;28;20607;-79
2021/09/05 09:51:41;;;;;;;8.75;4.10;;;;;;;20.62;68.89;94167.53;5073528;28;20234;-81
2021/09/05 09:54:08;;;;;;;5.85;3.63;;;;;;;20.66;72.76;94167.88;5073243;28;20596;-80
2021/09/05 09:56:36;;;;;;;5.60;3.42;;;;;;;20.70;74.80;94169.75;5073440;28;20676;-78
2021/09/05 09:59:07;;;;;;;6.15;3.45;;;;;;;20.67;67.72;94169.47;5058729;28;20229;-80
2021/09/05 10:01:36;;;;;;;7.07;3.70;;;;;;;20.68;68.29;94166.56;5056125;28;20202;-80
2021/09/05 10:04:05;;;;;;;6.88;3.92;;;;;;;20.88;69.35;94173.06;5073166;28;20197;-78
2021/09/05 10:06:33;;;;;;;7.40;3.33;;;;;;;21.06;67.43;94162.03;5072676;28;20656;-79
2021/09/05 10:09:02;;;;;;;6.07;3.70;;;;;;;21.11;68.69;94163.13;5073409;28;20611;-79
2021/09/05 10:11:29;;;;;;;6.25;3.63;;;;;;;21.02;70.16;94168.13;5073370;28;20226;-80
2021/09/05 10:13:58;;;;;;;8.80;3.58;;;;;;;21.10;71.05;94167.66;5073303;28;20203;-80
2021/09/05 10:16:24;;;;;;;7.03;4.10;;;;;;;21.16;71.15;94165.81;5072560;28;20532;-80
2021/09/05 10:18:55;;;;;;;6.75;4.28;;;;;;;21.27;71.75;94172.78;5073119;28;20590;-80
2021/09/05 10:21:22;;;;;;;6.43;3.63;;;;;;;21.21;68.56;94163.19;5073133;28;20203;-80
2021/09/05 10:23:51;;;;;;;8.10;4.18;;;;;;;21.33;67.61;94169.09;5073121;28;20198;-80
2021/09/05 10:26:18;;;;;;;6.97;4.10;;;;;;;21.34;70.61;94160.06;5072735;28;20203;-80
2021/09/05 10:28:46;;;;;;;6.68;4.07;;;;;;;21.34;68.77;94162.72;5073604;28;20203;-80
2021/09/05 10:31:13;;;;;;;5.45;3.55;;;;;;;21.60;72.40;94161.03;5072948;28;20715;-80
2021/09/05 10:33:44;;;;;;;5.60;3.67;;;;;;;21.72;71.39;94160.81;5072911;28;20210;-81
2021/09/05 10:36:14;;;;;;;5.70;3.70;;;;;;;21.62;65.80;94158.13;5073017;28;20205;-81
2021/09/05 10:38:42;;;;;;;7.57;3.63;;;;;;;21.72;68.15;94157.34;5073135;28;20570;-80
2021/09/05 10:41:13;;;;;;;15.02;3.97;;;;;;;21.78;70.91;94157.13;5072818;28;20203;-79
2021/09/05 10:43:55;;;;;;;9.13;4.13;;;;;;;21.80;69.39;94160.31;5072835;28;20210;-80
2021/09/05 10:46:24;;;;;;;9.10;3.78;;;;;;;21.61;69.12;94162.59;5072684;28;20295;-80
2021/09/05 10:48:53;;;;;;;7.88;3.83;;;;;;;21.59;66.69;94170.03;5072736;28;20210;-80
2021/09/05 10:51:23;;;;;;;7.00;3.55;;;;;;;21.94;67.65;94170.44;5072859;28;20272;-79
2021/09/05 10:53:53;;;;;;;5.95;3.60;;;;;;;21.98;65.91;94166.19;5072870;28;20213;-80
2021/09/05 10:56:22;;;;;;;5.47;3.85;;;;;;;22.09;66.62;94173.13;5072713;28;20233;-82
2021/09/05 10:58:54;;;;;;;7.70;3.40;;;;;;;22.16;62.98;94173.69;5072679;28;20210;-81
2021/09/05 11:01:22;;;;;;;6.00;3.73;;;;;;;22.46;69.04;94160.72;5071907;28;20777;-81
2021/09/05 11:04:26;;;;;;;5.85;3.65;;;;;;;22.36;62.10;94156.19;5072343;28;20203;-81
2021/09/05 11:06:56;;;;;;;7.85;3.60;;;;;;;22.36;66.02;94156.19;5072497;28;20721;-80
2021/09/05 11:09:56;;;;;;;6.22;3.95;;;;;;;22.24;64.56;94169.72;5072648;28;20199;-80
2021/09/05 11:12:44;;;;;;;8.13;3.88;;;;;;;22.07;65.35;94166.50;5072665;28;20203;-81
2021/09/05 11:15:14;;;;;;;5.18;3.60;;;;;;;21.77;63.85;94166.13;5072550;28;20202;-81
2021/09/05 11:17:40;;;;;;;6.70;3.53;;;;;;;21.62;62.65;94168.75;5072761;28;20199;-81
2021/09/05 11:20:09;;;;;;;5.55;3.15;;;;;;;21.68;65.94;94173.00;5076406;28;20209;-80
2021/09/05 11:22:41;;;;;;;6.65;3.38;;;;;;;22.04;65.40;94161.69;5076556;28;20206;-80
2021/09/05 11:25:16;;;;;;;10.25;4.20;;;;;;;22.30;63.07;94168.69;5076229;28;20612;-81
2021/09/05 11:27:49;;;;;;;7.47;3.58;;;;;;;22.18;63.85;94163.59;5076224;28;20202;-81